sensor_id;sensor_type;location;lat;lon;timestamp;pressure;altitude;pressure_sealevel;temperature;humidity
7433;BME280;32233;49.500;7.764;2023-06-22T00:00:10;98648.41;;;17.93;84.57
7433;BME280;32233;49.500;7.764;2023-06-22T00:02:38;98648.41;;;17.93;84.61
7433;BME280;32233;49.500;7.764;2023-06-22T00:05:05;98664.47;;;17.93;84.69
7433;BME280;32233;49.500;7.764;2023-06-22T00:07:32;98689.34;;;17.93;84.62
7433;BME280;32233;49.500;7.764;2023-06-22T00:09:58;98721.44;;;17.93;84.55
7433;BME280;32233;49.500;7.764;2023-06-22T00:12:25;98781.88;;;17.94;84.51
7433;BME280;32233;49.500;7.764;2023-06-22T00:14:51;98832.69;;;17.94;84.35
7433;BME280;32233;49.500;7.764;2023-06-22T00:17:18;98871.75;;;17.95;84.60
7433;BME280;32233;49.500;7.764;2023-06-22T00:19:46;98877.09;;;17.95;84.53
7433;BME280;32233;49.500;7.764;2023-06-22T00:22:13;98850.59;;;17.94;84.29
7433;BME280;32233;49.500;7.764;2023-06-22T00:24:40;98778.41;;;17.94;84.49
7433;BME280;32233;49.500;7.764;2023-06-22T00:27:06;98702.94;;;17.92;84.71
7433;BME280;32233;49.500;7.764;2023-06-22T00:29:33;98612.25;;;17.90;84.51
7433;BME280;32233;49.500;7.764;2023-06-22T00:31:59;98537.38;;;17.90;84.81
7433;BME280;32233;49.500;7.764;2023-06-22T00:34:26;98536.59;;;17.90;85.03
7433;BME280;32233;49.500;7.764;2023-06-22T00:36:52;98545.41;;;17.90;85.02
7433;BME280;32233;49.500;7.764;2023-06-22T00:39:19;98571.91;;;17.92;84.43
7433;BME280;32233;49.500;7.764;2023-06-22T00:41:45;98604.00;;;17.92;84.47
7433;BME280;32233;49.500;7.764;2023-06-22T00:44:12;98632.38;;;17.93;84.41
7433;BME280;32233;49.500;7.764;2023-06-22T00:46:38;98649.22;;;17.93;84.35
7433;BME280;32233;49.500;7.764;2023-06-22T00:49:05;98661.78;;;17.93;84.50
7433;BME280;32233;49.500;7.764;2023-06-22T00:51:32;98665.28;;;17.93;84.62
7433;BME280;32233;49.500;7.764;2023-06-22T00:53:58;98659.13;;;17.93;84.33
7433;BME280;32233;49.500;7.764;2023-06-22T00:56:25;98657.25;;;17.93;84.56
7433;BME280;32233;49.500;7.764;2023-06-22T00:58:53;98660.16;;;17.92;84.51
7433;BME280;32233;49.500;7.764;2023-06-22T01:01:20;98667.13;;;17.93;84.64
7433;BME280;32233;49.500;7.764;2023-06-22T01:03:50;98664.47;;;17.93;84.41
7433;BME280;32233;49.500;7.764;2023-06-22T01:06:32;98654.78;;;17.92;84.39
7433;BME280;32233;49.500;7.764;2023-06-22T01:09:14;98642.25;;;17.92;84.19
7433;BME280;32233;49.500;7.764;2023-06-22T01:11:45;98630.72;;;17.92;84.36
7433;BME280;32233;49.500;7.764;2023-06-22T01:14:24;98631.56;;;17.92;84.44
7433;BME280;32233;49.500;7.764;2023-06-22T01:16:56;98621.91;;;17.91;84.42
7433;BME280;32233;49.500;7.764;2023-06-22T01:19:46;98605.84;;;17.91;84.54
7433;BME280;32233;49.500;7.764;2023-06-22T01:22:17;98602.16;;;17.92;84.38
7433;BME280;32233;49.500;7.764;2023-06-22T01:30:16;98575.63;;;17.91;84.68
7433;BME280;32233;49.500;7.764;2023-06-22T01:32:43;98582.59;;;17.92;84.48
7433;BME280;32233;49.500;7.764;2023-06-22T01:35:10;98587.94;;;17.92;84.28
7433;BME280;32233;49.500;7.764;2023-06-22T01:37:38;98581.78;;;17.91;84.44
7433;BME280;32233;49.500;7.764;2023-06-22T01:40:07;98589.59;;;17.93;84.55
7433;BME280;32233;49.500;7.764;2023-06-22T01:42:36;98598.63;;;17.92;84.53
7433;BME280;32233;49.500;7.764;2023-06-22T01:45:04;98605.63;;;17.93;84.54
7433;BME280;32233;49.500;7.764;2023-06-22T01:47:31;98598.63;;;17.92;84.41
7433;BME280;32233;49.500;7.764;2023-06-22T01:49:58;98597.59;;;17.93;84.74
7433;BME280;32233;49.500;7.764;2023-06-22T01:52:25;98588.78;;;17.92;84.48
7433;BME280;32233;49.500;7.764;2023-06-22T01:54:51;98591.44;;;17.92;84.57
7433;BME280;32233;49.500;7.764;2023-06-22T01:57:18;98584.47;;;17.91;84.57
7433;BME280;32233;49.500;7.764;2023-06-22T02:00:04;98587.94;;;17.92;84.46
7433;BME280;32233;49.500;7.764;2023-06-22T02:05:34;98579.91;;;17.92;84.92
7433;BME280;32233;49.500;7.764;2023-06-22T02:10:35;98574.56;;;17.92;84.55
7433;BME280;32233;49.500;7.764;2023-06-22T02:13:05;98568.41;;;17.91;84.56
7433;BME280;32233;49.500;7.764;2023-06-22T02:15:32;98565.75;;;17.91;84.52
7433;BME280;32233;49.500;7.764;2023-06-22T02:18:00;98568.41;;;17.91;84.45
7433;BME280;32233;49.500;7.764;2023-06-22T02:20:27;98577.25;;;17.92;84.36
7433;BME280;32233;49.500;7.764;2023-06-22T02:22:55;98568.19;;;17.93;84.87
7433;BME280;32233;49.500;7.764;2023-06-22T02:25:22;98574.56;;;17.92;84.58
7433;BME280;32233;49.500;7.764;2023-06-22T02:27:48;98570.06;;;17.92;84.70
7433;BME280;32233;49.500;7.764;2023-06-22T02:30:16;98569.22;;;17.92;84.39
7433;BME280;32233;49.500;7.764;2023-06-22T02:32:42;98555.84;;;17.92;84.14
7433;BME280;32233;49.500;7.764;2023-06-22T02:35:10;98547.03;;;17.91;84.65
7433;BME280;32233;49.500;7.764;2023-06-22T02:37:37;98552.16;;;17.93;84.70
7433;BME280;32233;49.500;7.764;2023-06-22T02:40:08;98541.69;;;17.91;84.71
7433;BME280;32233;49.500;7.764;2023-06-22T02:42:36;98532.84;;;17.91;84.71
7433;BME280;32233;49.500;7.764;2023-06-22T02:45:03;98538.19;;;17.91;84.61
7433;BME280;32233;49.500;7.764;2023-06-22T02:47:30;98527.28;;;17.92;84.57
7433;BME280;32233;49.500;7.764;2023-06-22T02:49:57;98530.97;;;17.91;84.51
7433;BME280;32233;49.500;7.764;2023-06-22T02:52:24;98527.28;;;17.92;84.70
7433;BME280;32233;49.500;7.764;2023-06-22T02:54:51;98517.59;;;17.91;84.55
7433;BME280;32233;49.500;7.764;2023-06-22T02:57:18;98521.09;;;17.92;84.48
7433;BME280;32233;49.500;7.764;2023-06-22T02:59:44;98520.28;;;17.91;84.59
7433;BME280;32233;49.500;7.764;2023-06-22T03:02:12;98515.75;;;17.92;84.92
7433;BME280;32233;49.500;7.764;2023-06-22T03:04:39;98517.59;;;17.91;84.88
7433;BME280;32233;49.500;7.764;2023-06-22T03:07:06;98513.06;;;17.92;84.44
7433;BME280;32233;49.500;7.764;2023-06-22T03:09:33;98514.13;;;17.91;84.64
7433;BME280;32233;49.500;7.764;2023-06-22T03:12:00;98519.25;;;17.92;84.59
7433;BME280;32233;49.500;7.764;2023-06-22T03:14:37;98513.91;;;17.92;84.66
7433;BME280;32233;49.500;7.764;2023-06-22T03:17:05;98505.03;;;17.92;84.70
7433;BME280;32233;49.500;7.764;2023-06-22T03:19:32;98506.09;;;17.91;84.42
7433;BME280;32233;49.500;7.764;2023-06-22T03:21:59;98514.94;;;17.91;84.99
7433;BME280;32233;49.500;7.764;2023-06-22T03:24:26;98512.25;;;17.91;84.59
7433;BME280;32233;49.500;7.764;2023-06-22T03:26:55;98512.25;;;17.91;84.81
7433;BME280;32233;49.500;7.764;2023-06-22T03:29:23;98519.25;;;17.92;84.58
7433;BME280;32233;49.500;7.764;2023-06-22T03:31:50;98514.13;;;17.91;84.70
7433;BME280;32233;49.500;7.764;2023-06-22T03:34:17;98518.41;;;17.92;84.66
7433;BME280;32233;49.500;7.764;2023-06-22T03:36:44;98518.41;;;17.92;84.39
7433;BME280;32233;49.500;7.764;2023-06-22T03:39:11;98528.31;;;17.91;84.82
7433;BME280;32233;49.500;7.764;2023-06-22T03:41:40;98518.41;;;17.92;84.69
7433;BME280;32233;49.500;7.764;2023-06-22T03:44:06;98519.47;;;17.91;84.83
7433;BME280;32233;49.500;7.764;2023-06-22T03:46:36;98522.97;;;17.91;84.50
7433;BME280;32233;49.500;7.764;2023-06-22T03:49:03;98520.28;;;17.91;84.59
7433;BME280;32233;49.500;7.764;2023-06-22T03:51:32;98526.44;;;17.92;84.66
7433;BME280;32233;49.500;7.764;2023-06-22T03:53:58;98529.09;;;17.92;84.70
7433;BME280;32233;49.500;7.764;2023-06-22T03:56:25;98524.59;;;17.92;84.88
7433;BME280;32233;49.500;7.764;2023-06-22T03:58:52;98525.63;;;17.91;84.51
7433;BME280;32233;49.500;7.764;2023-06-22T04:01:18;98529.94;;;17.92;84.99
7433;BME280;32233;49.500;7.764;2023-06-22T04:03:45;98529.09;;;17.92;84.91
7433;BME280;32233;49.500;7.764;2023-06-22T04:06:15;98521.34;;;17.90;84.98
7433;BME280;32233;49.500;7.764;2023-06-22T04:08:41;98522.97;;;17.91;84.71
7433;BME280;32233;49.500;7.764;2023-06-22T04:11:08;98527.50;;;17.91;85.06
7433;BME280;32233;49.500;7.764;2023-06-22T04:13:35;98528.31;;;17.91;84.74
7433;BME280;32233;49.500;7.764;2023-06-22T04:16:01;98525.63;;;17.91;84.82
7433;BME280;32233;49.500;7.764;2023-06-22T04:18:28;98522.97;;;17.91;84.85
7433;BME280;32233;49.500;7.764;2023-06-22T04:20:54;98523.75;;;17.92;84.85
7433;BME280;32233;49.500;7.764;2023-06-22T04:23:21;98522.97;;;17.91;84.74
7433;BME280;32233;49.500;7.764;2023-06-22T04:25:47;98527.50;;;17.91;85.06
7433;BME280;32233;49.500;7.764;2023-06-22T04:28:14;98521.09;;;17.92;84.88
7433;BME280;32233;49.500;7.764;2023-06-22T04:30:40;98514.94;;;17.91;84.67
7433;BME280;32233;49.500;7.764;2023-06-22T04:33:14;98521.09;;;17.92;84.93
7433;BME280;32233;49.500;7.764;2023-06-22T04:35:41;98514.94;;;17.91;84.64
7433;BME280;32233;49.500;7.764;2023-06-22T04:38:07;98517.59;;;17.91;84.92
7433;BME280;32233;49.500;7.764;2023-06-22T04:40:34;98514.94;;;17.91;85.08
7433;BME280;32233;49.500;7.764;2023-06-22T04:43:00;98518.41;;;17.92;84.79
7433;BME280;32233;49.500;7.764;2023-06-22T04:45:28;98520.28;;;17.91;84.75
7433;BME280;32233;49.500;7.764;2023-06-22T04:47:58;98522.16;;;17.91;84.95
7433;BME280;32233;49.500;7.764;2023-06-22T04:50:24;98514.94;;;17.91;84.86
7433;BME280;32233;49.500;7.764;2023-06-22T04:52:51;98507.97;;;17.90;84.68
7433;BME280;32233;49.500;7.764;2023-06-22T04:55:20;98500.75;;;17.91;84.83
7433;BME280;32233;49.500;7.764;2023-06-22T04:57:47;98488.47;;;17.90;84.88
7433;BME280;32233;49.500;7.764;2023-06-22T05:00:16;98490.06;;;17.91;84.79
7433;BME280;32233;49.500;7.764;2023-06-22T05:02:45;98490.88;;;17.91;84.83
7433;BME280;32233;49.500;7.764;2023-06-22T05:05:13;98494.34;;;17.92;84.81
7433;BME280;32233;49.500;7.764;2023-06-22T05:07:44;98499.69;;;17.92;85.00
7433;BME280;32233;49.500;7.764;2023-06-22T05:10:11;98497.03;;;17.92;84.64
7433;BME280;32233;49.500;7.764;2023-06-22T05:12:39;98488.19;;;17.91;84.75
7433;BME280;32233;49.500;7.764;2023-06-22T05:15:07;98480.19;;;17.91;84.80
7433;BME280;32233;49.500;7.764;2023-06-22T05:17:35;98472.16;;;17.91;85.03
7433;BME280;32233;49.500;7.764;2023-06-22T05:20:02;98471.34;;;17.91;84.82
7433;BME280;32233;49.500;7.764;2023-06-22T05:22:32;98469.47;;;17.91;85.25
7433;BME280;32233;49.500;7.764;2023-06-22T05:24:59;98460.66;;;17.91;84.95
7433;BME280;32233;49.500;7.764;2023-06-22T05:27:25;98466.00;;;17.91;84.86
7433;BME280;32233;49.500;7.764;2023-06-22T05:29:52;98474.81;;;17.91;84.69
7433;BME280;32233;49.500;7.764;2023-06-22T05:32:19;98486.31;;;17.92;85.18
7433;BME280;32233;49.500;7.764;2023-06-22T05:34:46;98486.31;;;17.92;84.98
7433;BME280;32233;49.500;7.764;2023-06-22T05:37:12;98472.16;;;17.91;84.89
7433;BME280;32233;49.500;7.764;2023-06-22T05:39:39;98480.19;;;17.91;84.49
7433;BME280;32233;49.500;7.764;2023-06-22T05:42:07;98482.84;;;17.91;84.72
7433;BME280;32233;49.500;7.764;2023-06-22T05:44:36;98475.63;;;17.92;84.86
7433;BME280;32233;49.500;7.764;2023-06-22T05:47:04;98479.38;;;17.91;84.68
7433;BME280;32233;49.500;7.764;2023-06-22T05:49:30;98487.16;;;17.92;84.95
7433;BME280;32233;49.500;7.764;2023-06-22T05:51:59;98470.28;;;17.92;84.99
7433;BME280;32233;49.500;7.764;2023-06-22T05:54:29;98476.47;;;17.92;84.87
7433;BME280;32233;49.500;7.764;2023-06-22T05:56:56;98472.94;;;17.92;84.62
7433;BME280;32233;49.500;7.764;2023-06-22T05:59:23;98471.91;;;17.93;84.94
7433;BME280;32233;49.500;7.764;2023-06-22T06:01:49;98467.59;;;17.92;85.08
7433;BME280;32233;49.500;7.764;2023-06-22T06:04:17;98470.28;;;17.92;84.87
7433;BME280;32233;49.500;7.764;2023-06-22T06:06:45;98467.59;;;17.92;84.71
7433;BME280;32233;49.500;7.764;2023-06-22T06:09:14;98468.66;;;17.91;84.81
7433;BME280;32233;49.500;7.764;2023-06-22T06:11:40;98470.28;;;17.92;84.91
7433;BME280;32233;49.500;7.764;2023-06-22T06:14:07;98469.47;;;17.91;84.81
7433;BME280;32233;49.500;7.764;2023-06-22T06:16:34;98474.81;;;17.91;84.97
7433;BME280;32233;49.500;7.764;2023-06-22T06:19:00;98487.38;;;17.91;84.65
7433;BME280;32233;49.500;7.764;2023-06-22T06:21:27;98472.94;;;17.92;84.75
7433;BME280;32233;49.500;7.764;2023-06-22T06:23:56;98468.66;;;17.91;84.89
7433;BME280;32233;49.500;7.764;2023-06-22T06:26:23;98474.03;;;17.91;85.06
7433;BME280;32233;49.500;7.764;2023-06-22T06:28:55;98471.34;;;17.91;84.73
7433;BME280;32233;49.500;7.764;2023-06-22T06:31:22;98466.81;;;17.91;84.86
7433;BME280;32233;49.500;7.764;2023-06-22T06:33:49;98466.25;;;17.89;84.46
7433;BME280;32233;49.500;7.764;2023-06-22T06:36:16;98455.31;;;17.91;84.71
7433;BME280;32233;49.500;7.764;2023-06-22T06:38:43;98462.53;;;17.90;84.71
7433;BME280;32233;49.500;7.764;2023-06-22T06:41:10;98462.53;;;17.90;84.64
7433;BME280;32233;49.500;7.764;2023-06-22T06:43:36;98469.47;;;17.91;84.71
7433;BME280;32233;49.500;7.764;2023-06-22T06:46:03;98461.47;;;17.91;84.64
7433;BME280;32233;49.500;7.764;2023-06-22T06:48:30;98464.94;;;17.92;84.89
7433;BME280;32233;49.500;7.764;2023-06-22T06:50:56;98455.31;;;17.91;84.50
7433;BME280;32233;49.500;7.764;2023-06-22T06:53:23;98449.94;;;17.91;84.58
7433;BME280;32233;49.500;7.764;2023-06-22T06:55:49;98459.59;;;17.92;84.70
7433;BME280;32233;49.500;7.764;2023-06-22T06:58:16;98455.31;;;17.91;84.50
7433;BME280;32233;49.500;7.764;2023-06-22T07:00:43;98447.28;;;17.91;84.80
7433;BME280;32233;49.500;7.764;2023-06-22T07:03:10;98452.63;;;17.91;84.46
7433;BME280;32233;49.500;7.764;2023-06-22T07:05:36;98456.09;;;17.91;84.54
7433;BME280;32233;49.500;7.764;2023-06-22T07:08:03;98460.66;;;17.91;84.76
7433;BME280;32233;49.500;7.764;2023-06-22T07:10:30;98463.31;;;17.91;84.82
7433;BME280;32233;49.500;7.764;2023-06-22T07:12:57;98450.75;;;17.91;84.66
7433;BME280;32233;49.500;7.764;2023-06-22T07:15:23;98445.41;;;17.91;84.93
7433;BME280;32233;49.500;7.764;2023-06-22T07:17:50;98450.75;;;17.91;84.69
7433;BME280;32233;49.500;7.764;2023-06-22T07:20:17;98451.81;;;17.90;84.70
7433;BME280;32233;49.500;7.764;2023-06-22T07:22:45;98451.81;;;17.90;84.51
7433;BME280;32233;49.500;7.764;2023-06-22T07:25:12;98458.78;;;17.91;84.56
7433;BME280;32233;49.500;7.764;2023-06-22T07:27:45;98451.81;;;17.90;84.53
7433;BME280;32233;49.500;7.764;2023-06-22T07:30:12;98462.25;;;17.92;84.64
7433;BME280;32233;49.500;7.764;2023-06-22T07:32:39;98447.28;;;17.91;84.76
7433;BME280;32233;49.500;7.764;2023-06-22T07:35:06;98450.75;;;17.91;84.47
7433;BME280;32233;49.500;7.764;2023-06-22T07:37:33;98449.94;;;17.91;84.40
7433;BME280;32233;49.500;7.764;2023-06-22T07:40:01;98451.56;;;17.92;84.71
7433;BME280;32233;49.500;7.764;2023-06-22T07:42:32;98436.59;;;17.91;84.63
7433;BME280;32233;49.500;7.764;2023-06-22T07:45:03;98433.91;;;17.91;84.46
7433;BME280;32233;49.500;7.764;2023-06-22T07:47:30;98429.63;;;17.90;84.52
7433;BME280;32233;49.500;7.764;2023-06-22T07:49:58;98429.38;;;17.91;84.87
7433;BME280;32233;49.500;7.764;2023-06-22T07:52:29;98435.78;;;17.90;84.37
7433;BME280;32233;49.500;7.764;2023-06-22T07:54:56;98429.38;;;17.91;84.79
7433;BME280;32233;49.500;7.764;2023-06-22T07:57:23;98427.50;;;17.92;84.68
7433;BME280;32233;49.500;7.764;2023-06-22T07:59:58;98415.19;;;17.91;84.75
7433;BME280;32233;49.500;7.764;2023-06-22T08:02:26;98405.31;;;17.91;84.54
7433;BME280;32233;49.500;7.764;2023-06-22T08:04:53;98405.31;;;17.91;84.67
7433;BME280;32233;49.500;7.764;2023-06-22T08:07:32;98413.31;;;17.91;84.42
7433;BME280;32233;49.500;7.764;2023-06-22T08:09:59;98409.84;;;17.91;84.54
7433;BME280;32233;49.500;7.764;2023-06-22T08:12:25;98407.16;;;17.91;84.66
7433;BME280;32233;49.500;7.764;2023-06-22T08:14:52;98399.16;;;17.91;84.75
7433;BME280;32233;49.500;7.764;2023-06-22T08:17:19;98400.25;;;17.95;85.17
7433;BME280;32233;49.500;7.764;2023-06-22T08:19:45;98408.28;;;17.95;84.84
7433;BME280;32233;49.500;7.764;2023-06-22T08:22:12;98414.44;;;17.95;85.12
7433;BME280;32233;49.500;7.764;2023-06-22T08:24:38;98413.63;;;17.95;84.75
7433;BME280;32233;49.500;7.764;2023-06-22T08:27:07;98403.19;;;17.93;85.02
7433;BME280;32233;49.500;7.764;2023-06-22T08:29:35;98391.69;;;17.93;84.87
7433;BME280;32233;49.500;7.764;2023-06-22T08:32:03;98386.34;;;17.93;84.87
7433;BME280;32233;49.500;7.764;2023-06-22T08:34:30;98393.31;;;17.94;85.45
7433;BME280;32233;49.500;7.764;2023-06-22T08:36:56;98389.03;;;17.93;84.94
7433;BME280;32233;49.500;7.764;2023-06-22T08:39:23;98392.50;;;17.93;84.90
7433;BME280;32233;49.500;7.764;2023-06-22T08:41:49;98388.22;;;17.92;84.73
7433;BME280;32233;49.500;7.764;2023-06-22T08:44:18;98392.50;;;17.93;84.74
7433;BME280;32233;49.500;7.764;2023-06-22T08:46:45;98399.72;;;17.93;84.98
7433;BME280;32233;49.500;7.764;2023-06-22T08:49:11;98395.41;;;17.92;84.99
7433;BME280;32233;49.500;7.764;2023-06-22T08:51:38;98398.91;;;17.92;84.89
7433;BME280;32233;49.500;7.764;2023-06-22T08:54:05;98393.56;;;17.92;84.31
7433;BME280;32233;49.500;7.764;2023-06-22T08:56:31;98404.25;;;17.92;84.72
7433;BME280;32233;49.500;7.764;2023-06-22T08:58:58;98398.66;;;17.94;85.03
7433;BME280;32233;49.500;7.764;2023-06-22T09:01:25;98390.91;;;17.92;84.69
7433;BME280;32233;49.500;7.764;2023-06-22T09:03:51;98393.56;;;17.92;84.94
7433;BME280;32233;49.500;7.764;2023-06-22T09:06:22;98382.88;;;17.92;84.76
7433;BME280;32233;49.500;7.764;2023-06-22T09:08:49;98382.88;;;17.92;84.55
7433;BME280;32233;49.500;7.764;2023-06-22T09:11:15;98384.47;;;17.93;84.53
7433;BME280;32233;49.500;7.764;2023-06-22T09:13:42;98377.53;;;17.92;85.03
7433;BME280;32233;49.500;7.764;2023-06-22T09:16:09;98365.75;;;17.93;84.85
7433;BME280;32233;49.500;7.764;2023-06-22T09:18:35;98364.69;;;17.94;84.80
7433;BME280;32233;49.500;7.764;2023-06-22T09:21:02;98348.66;;;17.94;85.17
7433;BME280;32233;49.500;7.764;2023-06-22T09:23:29;98360.47;;;17.98;85.11
7433;BME280;32233;49.500;7.764;2023-06-22T09:25:55;98354.84;;;18.00;85.19
7433;BME280;32233;49.500;7.764;2023-06-22T09:28:22;98344.16;;;18.00;85.12
7433;BME280;32233;49.500;7.764;2023-06-22T09:30:49;98353.00;;;18.00;85.15
7433;BME280;32233;49.500;7.764;2023-06-22T09:33:15;98344.16;;;18.00;85.75
7433;BME280;32233;49.500;7.764;2023-06-22T09:35:44;98344.16;;;18.00;85.51
7433;BME280;32233;49.500;7.764;2023-06-22T09:38:11;98341.47;;;18.00;85.63
7433;BME280;32233;49.500;7.764;2023-06-22T09:40:37;98337.25;;;18.04;85.56
7433;BME280;32233;49.500;7.764;2023-06-22T09:43:06;98335.41;;;18.04;85.91
7433;BME280;32233;49.500;7.764;2023-06-22T09:45:32;98330.28;;;18.03;85.82
7433;BME280;32233;49.500;7.764;2023-06-22T09:47:59;98317.19;;;18.01;85.51
7433;BME280;32233;49.500;7.764;2023-06-22T09:50:26;98313.69;;;18.01;86.34
7433;BME280;32233;49.500;7.764;2023-06-22T09:52:53;98325.44;;;18.00;85.99
7433;BME280;32233;49.500;7.764;2023-06-22T09:55:21;98317.97;;;18.02;85.72
7433;BME280;32233;49.500;7.764;2023-06-22T09:57:48;98306.22;;;18.03;85.95
7433;BME280;32233;49.500;7.764;2023-06-22T10:00:16;98303.53;;;18.03;85.93
7433;BME280;32233;49.500;7.764;2023-06-22T10:02:43;98296.59;;;18.02;85.40
7433;BME280;32233;49.500;7.764;2023-06-22T10:05:10;98304.59;;;18.02;85.46
7433;BME280;32233;49.500;7.764;2023-06-22T10:07:38;98299.00;;;18.03;85.49
7433;BME280;32233;49.500;7.764;2023-06-22T10:10:09;98290.16;;;18.03;85.64
7433;BME280;32233;49.500;7.764;2023-06-22T10:12:43;98286.69;;;18.02;85.16
7433;BME280;32233;49.500;7.764;2023-06-22T10:15:11;98282.94;;;18.03;85.38
7433;BME280;32233;49.500;7.764;2023-06-22T10:17:38;98270.38;;;18.04;85.17
7433;BME280;32233;49.500;7.764;2023-06-22T10:20:08;98274.13;;;18.03;85.30
7433;BME280;32233;49.500;7.764;2023-06-22T10:22:42;98273.31;;;18.02;85.45
7433;BME280;32233;49.500;7.764;2023-06-22T10:25:10;98270.38;;;18.04;85.39
7433;BME280;32233;49.500;7.764;2023-06-22T10:27:37;98269.56;;;18.03;85.45
7433;BME280;32233;49.500;7.764;2023-06-22T10:30:08;98263.19;;;18.04;85.37
7433;BME280;32233;49.500;7.764;2023-06-22T10:32:37;98255.72;;;18.06;86.06
7433;BME280;32233;49.500;7.764;2023-06-22T10:35:05;98256.81;;;18.11;86.08
7433;BME280;32233;49.500;7.764;2023-06-22T10:37:31;98263.53;;;18.13;86.34
7433;BME280;32233;49.500;7.764;2023-06-22T10:39:58;98252.84;;;18.13;86.86
7433;BME280;32233;49.500;7.764;2023-06-22T10:42:25;98248.81;;;18.16;86.75
7433;BME280;32233;49.500;7.764;2023-06-22T10:44:51;98247.22;;;18.15;86.61
7433;BME280;32233;49.500;7.764;2023-06-22T10:47:18;98235.97;;;18.13;86.35
7433;BME280;32233;49.500;7.764;2023-06-22T10:49:45;98234.34;;;18.12;86.63
7433;BME280;32233;49.500;7.764;2023-06-22T10:52:11;98245.03;;;18.12;86.22
7433;BME280;32233;49.500;7.764;2023-06-22T10:54:38;98244.25;;;18.11;86.45
7433;BME280;32233;49.500;7.764;2023-06-22T10:57:04;98248.53;;;18.12;86.39
7433;BME280;32233;49.500;7.764;2023-06-22T10:59:31;98248.53;;;18.12;86.15
7433;BME280;32233;49.500;7.764;2023-06-22T11:01:58;98242.94;;;18.14;86.09
7433;BME280;32233;49.500;7.764;2023-06-22T11:04:25;98241.06;;;18.14;86.11
7433;BME280;32233;49.500;7.764;2023-06-22T11:06:52;98241.34;;;18.13;86.33
7433;BME280;32233;49.500;7.764;2023-06-22T11:09:18;98236.50;;;18.15;85.91
7433;BME280;32233;49.500;7.764;2023-06-22T11:11:55;98227.69;;;18.14;86.30
7433;BME280;32233;49.500;7.764;2023-06-22T11:14:22;98237.59;;;18.14;86.07
7433;BME280;32233;49.500;7.764;2023-06-22T11:16:49;98229.84;;;18.17;86.92
7433;BME280;32233;49.500;7.764;2023-06-22T11:19:15;98236.56;;;18.20;87.38
7433;BME280;32233;49.500;7.764;2023-06-22T11:21:42;98242.19;;;18.23;87.99
7433;BME280;32233;49.500;7.764;2023-06-22T11:24:09;98240.31;;;18.24;87.52
7433;BME280;32233;49.500;7.764;2023-06-22T11:26:35;98230.69;;;18.23;87.98
7433;BME280;32233;49.500;7.764;2023-06-22T11:29:03;98233.63;;;18.21;87.73
7433;BME280;32233;49.500;7.764;2023-06-22T11:31:34;98237.34;;;18.20;87.31
7433;BME280;32233;49.500;7.764;2023-06-22T11:34:01;98238.41;;;18.19;87.28
7433;BME280;32233;49.500;7.764;2023-06-22T11:36:29;98225.84;;;18.20;87.42
7433;BME280;32233;49.500;7.764;2023-06-22T11:38:55;98221.38;;;18.25;88.70
7433;BME280;32233;49.500;7.764;2023-06-22T11:41:22;98215.34;;;18.45;88.76
7433;BME280;32233;49.500;7.764;2023-06-22T11:43:48;98216.19;;;18.51;87.19
7433;BME280;32233;49.500;7.764;2023-06-22T11:46:15;98218.84;;;18.46;88.03
7433;BME280;32233;49.500;7.764;2023-06-22T11:48:41;98211.59;;;18.46;88.47
7433;BME280;32233;49.500;7.764;2023-06-22T11:51:08;98216.19;;;18.51;88.28
7433;BME280;32233;49.500;7.764;2023-06-22T11:53:35;98219.94;;;18.50;87.82
7433;BME280;32233;49.500;7.764;2023-06-22T11:56:01;98220.44;;;18.47;87.86
7433;BME280;32233;49.500;7.764;2023-06-22T11:58:28;98210.56;;;18.52;87.09
7433;BME280;32233;49.500;7.764;2023-06-22T12:00:55;98214.56;;;18.50;89.04
7433;BME280;32233;49.500;7.764;2023-06-22T12:03:22;98214.78;;;18.43;89.79
7433;BME280;32233;49.500;7.764;2023-06-22T12:05:50;98212.84;;;18.34;90.66
7433;BME280;32233;49.500;7.764;2023-06-22T12:08:20;98210.91;;;18.24;91.54
7433;BME280;32233;49.500;7.764;2023-06-22T12:10:49;98195.75;;;18.35;91.78
7433;BME280;32233;49.500;7.764;2023-06-22T12:13:16;61041.06;;;-143.08;100.00
7433;BME280;32233;49.500;7.764;2023-06-22T12:15:42;61041.06;;;-143.08;100.00
7433;BME280;32233;49.500;7.764;2023-06-22T12:18:09;61041.06;;;-143.08;100.00
7433;BME280;32233;49.500;7.764;2023-06-22T12:20:36;61041.06;;;-143.08;100.00
7433;BME280;32233;49.500;7.764;2023-06-22T12:23:02;61041.06;;;-143.08;100.00
7433;BME280;32233;49.500;7.764;2023-06-22T12:25:29;61041.06;;;-143.08;100.00
7433;BME280;32233;49.500;7.764;2023-06-22T12:27:55;61041.06;;;-143.08;100.00
7433;BME280;32233;49.500;7.764;2023-06-22T12:30:22;61041.06;;;-143.08;100.00
7433;BME280;32233;49.500;7.764;2023-06-22T12:32:48;61041.06;;;-143.08;100.00
7433;BME280;32233;49.500;7.764;2023-06-22T12:35:16;61041.06;;;-143.08;100.00
7433;BME280;32233;49.500;7.764;2023-06-22T12:37:42;61041.06;;;-143.08;100.00
7433;BME280;32233;49.500;7.764;2023-06-22T12:40:10;61041.06;;;-143.08;100.00
7433;BME280;32233;49.500;7.764;2023-06-22T12:42:36;61041.06;;;-143.08;100.00
7433;BME280;32233;49.500;7.764;2023-06-22T12:45:03;61041.06;;;-143.08;100.00
7433;BME280;32233;49.500;7.764;2023-06-22T12:47:31;61041.06;;;-143.08;100.00
7433;BME280;32233;49.500;7.764;2023-06-22T12:49:57;61041.06;;;-143.08;100.00
7433;BME280;32233;49.500;7.764;2023-06-22T12:52:24;61041.06;;;-143.08;100.00
7433;BME280;32233;49.500;7.764;2023-06-22T12:54:51;61041.06;;;-143.08;100.00
7433;BME280;32233;49.500;7.764;2023-06-22T12:57:21;61041.06;;;-143.08;100.00
7433;BME280;32233;49.500;7.764;2023-06-22T12:59:48;61041.06;;;-143.08;100.00
7433;BME280;32233;49.500;7.764;2023-06-22T13:02:15;61041.06;;;-143.08;100.00
7433;BME280;32233;49.500;7.764;2023-06-22T13:04:42;61041.06;;;-143.08;100.00
7433;BME280;32233;49.500;7.764;2023-06-22T13:07:09;61041.06;;;-143.08;100.00
7433;BME280;32233;49.500;7.764;2023-06-22T13:15:39;98045.66;;;25.59;52.13
7433;BME280;32233;49.500;7.764;2023-06-22T13:20:01;98076.78;;;19.72;57.07
7433;BME280;32233;49.500;7.764;2023-06-22T13:24:56;98073.47;;;18.69;61.32
7433;BME280;32233;49.500;7.764;2023-06-22T13:27:23;98082.63;;;18.63;62.06
7433;BME280;32233;49.500;7.764;2023-06-22T13:29:50;98067.63;;;18.60;61.75